Weather reports worldwide

Advertisment
Ecija, Spain (8395): temperature & dewpoint: 20.06.2019 17:00:00 - 26.06.2019 17:00:00 (CEST)Ecija, Spain (8395): wind speed & gusts: 20.06.2019 17:00:00 - 26.06.2019 17:00:00 (CEST)Ecija, Spain (8395): wind direction: 20.06.2019 17:00:00 - 26.06.2019 17:00:00 (CEST)Ecija, Spain (8395): reduced air pressure: 20.06.2019 17:00:00 - 26.06.2019 17:00:00 (CEST)Ecija, Spain (8395): precipitation: 20.06.2019 17:00:00 - 26.06.2019 17:00:00 (CEST)
Date & Time tt [°C] td [°C] ff [km/h] ff [kn] fx [km/h] fx [kn] dd ppp [hPa] rr [mm]
26.06.2019 17:00:00 - - - - - - - - -
26.06.2019 16:00:00 31,1 17,4 10 6 27 15 W 1014,8 0,0
26.06.2019 15:00:00 30,5 17,2 10 6 24 13 WSW 1015,6 0,0
26.06.2019 14:00:00 29,2 17,1 7 4 26 14 WSW 1016,6 -
26.06.2019 13:00:00 28,0 17,2 4 2 19 10 SW 1017,1 0,0
26.06.2019 12:00:00 26,3 17,1 6 3 18 10 SW 1017,7 0,0
26.06.2019 11:00:00 24,7 17,2 6 3 17 9 WNW 1017,8 0,0
26.06.2019 10:00:00 23,0 17,5 9 5 16 9 WNW 1018,0 0,0
26.06.2019 09:00:00 22,3 17,5 1 1 7 4 SW 1017,4 0,0
26.06.2019 08:00:00 19,6 15,9 1 0 10 5 ESE 1017,1 -
26.06.2019 07:00:00 18,6 14,7 4 2 8 4 ESE 1016,8 0,0
26.06.2019 06:00:00 19,3 15,0 4 2 14 8 S 1016,4 0,0
26.06.2019 05:00:00 19,9 15,3 9 5 13 7 SW 1016,1 0,0
26.06.2019 04:00:00 20,3 15,1 5 3 19 10 SW 1016,3 0,0
26.06.2019 03:00:00 20,9 14,5 14 8 20 11 SW 1016,4 0,0
26.06.2019 02:00:00 21,8 14,2 11 6 24 13 WSW 1016,1 -
26.06.2019 01:00:00 22,7 13,2 17 9 27 15 WSW 1015,8 0,0
26.06.2019 00:00:00 23,9 12,8 18 10 32 17 SW 1015,2 0,0
25.06.2019 23:00:00 25,4 12,6 21 11 31 17 WSW 1014,6 0,0
25.06.2019 22:00:00 27,1 12,7 16 9 31 17 W 1013,7 0,0
25.06.2019 21:00:00 30,4 14,5 19 10 36 19 W 1012,7 0,0
25.06.2019 20:00:00 32,5 16,0 16 9 30 16 W 1012,2 -
25.06.2019 19:00:00 33,8 16,6 11 6 27 15 W 1011,8 0,0
25.06.2019 18:00:00 34,2 17,0 10 5 29 15 WSW 1012,1 0,0
25.06.2019 17:00:00 33,6 16,5 6 4 25 13 WSW 1012,4 0,0
25.06.2019 16:00:00 32,5 16,3 3 2 26 14 S 1013,0 0,0
25.06.2019 15:00:00 31,6 16,4 10 5 26 14 W 1013,6 0,0
25.06.2019 14:00:00 30,5 16,5 4 2 19 10 WSW 1014,5 -
25.06.2019 13:00:00 28,9 16,8 4 2 14 8 WSW 1015,4 0,0
25.06.2019 12:00:00 27,0 17,2 1 1 13 7 W 1015,9 0,0
25.06.2019 11:00:00 24,6 16,6 3 2 14 8 S 1016,2 0,0
25.06.2019 10:00:00 22,7 16,2 3 1 8 4 W 1016,5 0,0
25.06.2019 09:00:00 20,9 15,4 0 0 5 3 E 1016,6 0,0
25.06.2019 08:00:00 17,4 13,0 4 2 9 5 S 1016,5 -
25.06.2019 07:00:00 17,2 12,5 4 2 9 5 NW 1015,8 0,0
25.06.2019 06:00:00 17,6 12,5 3 1 5 3 SSE 1015,5 0,0
25.06.2019 05:00:00 17,9 12,5 1 1 13 7 W 1015,6 0,0
25.06.2019 04:00:00 18,8 13,0 6 3 14 7 W 1015,1 0,0
25.06.2019 03:00:00 19,7 13,4 9 5 16 9 SSW 1015,6 0,0
25.06.2019 02:00:00 20,8 14,4 11 6 32 17 SW 1015,6 -
25.06.2019 01:00:00 21,7 15,1 25 13 36 19 WSW 1015,0 0,0
25.06.2019 00:00:00 23,1 14,9 19 11 27 15 WSW 1014,7 0,0
24.06.2019 23:00:00 24,4 14,2 15 8 22 12 SW 1014,3 0,0
24.06.2019 22:00:00 25,8 13,9 16 9 32 17 WSW 1013,6 0,0
24.06.2019 21:00:00 28,6 13,7 19 10 33 18 WSW 1013,1 0,0
24.06.2019 20:00:00 30,0 14,1 20 11 32 18 WSW 1012,7 -
24.06.2019 19:00:00 30,9 14,5 18 10 32 18 W 1012,4 0,0
24.06.2019 18:00:00 31,8 15,7 13 7 34 18 WSW 1012,2 0,0
24.06.2019 17:00:00 31,5 15,9 14 8 37 20 W 1012,4 0,0
24.06.2019 16:00:00 32,4 15,9 15 8 35 19 WSW 1012,5 0,0
24.06.2019 15:00:00 30,8 15,3 8 4 22 12 SSW 1012,9 0,0
24.06.2019 14:00:00 29,2 15,0 9 5 19 10 SSW 1013,4 -
24.06.2019 13:00:00 28,0 16,0 4 2 22 12 WSW 1013,9 0,0
24.06.2019 12:00:00 25,4 14,8 6 3 19 10 W 1014,7 0,0
24.06.2019 11:00:00 23,3 14,0 5 3 13 7 SSW 1014,9 0,0
24.06.2019 10:00:00 20,3 12,3 6 3 12 7 NW 1015,0 0,0
24.06.2019 09:00:00 19,8 11,0 5 3 9 5 NNW 1014,6 0,0
24.06.2019 08:00:00 18,3 9,4 1 0 8 4 ESE 1014,5 -
24.06.2019 07:00:00 18,0 9,3 3 2 11 6 NNW 1014,0 0,0
24.06.2019 06:00:00 18,3 9,0 4 2 16 8 S 1013,6 0,0
24.06.2019 05:00:00 19,7 9,3 13 7 18 10 SW 1013,6 0,0
24.06.2019 04:00:00 19,6 8,9 1 1 6 4 S 1013,8 0,0
24.06.2019 03:00:00 20,8 10,0 4 2 24 13 SW 1013,9 0,0
24.06.2019 02:00:00 21,7 10,8 21 11 33 18 WSW 1013,8 -
24.06.2019 01:00:00 22,9 12,5 18 10 27 14 SW 1013,8 0,0
24.06.2019 00:00:00 24,4 13,3 17 9 26 14 WSW 1013,4 0,0
23.06.2019 23:00:00 25,5 14,3 14 8 33 18 WSW 1012,6 0,0
23.06.2019 22:00:00 27,1 14,5 17 9 33 18 WSW 1011,1 0,0
23.06.2019 21:00:00 29,7 14,6 16 8 29 15 W 1010,5 0,0
23.06.2019 20:00:00 31,7 14,3 17 9 31 17 W 1009,9 -
23.06.2019 19:00:00 32,7 15,3 15 8 33 18 W 1009,5 0,0
23.06.2019 18:00:00 33,4 14,9 13 7 28 15 W 1009,9 0,0
23.06.2019 17:00:00 34,0 15,0 12 7 30 16 WSW 1010,2 0,0
23.06.2019 16:00:00 33,2 14,8 9 5 24 13 WSW 1010,8 0,0
23.06.2019 15:00:00 32,6 15,2 8 4 35 19 SW 1011,5 0,0
23.06.2019 14:00:00 31,6 15,5 4 2 20 11 WSW 1012,1 -
23.06.2019 13:00:00 29,7 15,4 3 2 14 7 WNW 1012,9 0,0
23.06.2019 12:00:00 28,2 15,2 2 1 12 6 SSW 1013,2 0,0
23.06.2019 11:00:00 25,9 13,4 5 3 13 7 NNW 1013,5 0,0
23.06.2019 10:00:00 24,2 11,9 3 1 8 4 ENE 1013,9 0,0
23.06.2019 09:00:00 20,7 10,5 3 1 6 3 SE 1014,2 0,0
23.06.2019 08:00:00 17,7 8,0 1 1 4 2 S 1014,6 -
23.06.2019 07:00:00 16,5 6,5 0 0 4 2 S 1014,1 0,0
23.06.2019 06:00:00 17,2 6,4 1 1 4 2 SW 1014,1 0,0
23.06.2019 05:00:00 18,4 7,1 0 0 9 5 ESE 1013,8 0,0
23.06.2019 04:00:00 20,0 7,0 4 2 9 5 SSW 1013,8 0,0
23.06.2019 03:00:00 21,3 8,5 6 4 29 16 W 1013,9 0,0
23.06.2019 02:00:00 21,4 10,3 17 9 26 14 SW 1014,2 -
23.06.2019 01:00:00 22,3 9,8 16 9 27 15 SSW 1014,1 0,0
23.06.2019 00:00:00 23,3 10,4 23 12 33 18 WSW 1013,8 0,0
22.06.2019 23:00:00 25,1 11,7 22 12 36 19 SW 1012,9 0,0
22.06.2019 22:00:00 27,3 12,5 24 13 35 19 WSW 1011,7 0,0
22.06.2019 21:00:00 30,8 12,6 22 12 38 21 W 1011,0 0,0
22.06.2019 20:00:00 34,3 12,6 11 6 24 13 W 1010,2 -
22.06.2019 19:00:00 34,8 12,4 3 2 18 10 W 1010,4 0,0
22.06.2019 18:00:00 34,3 12,0 9 5 23 13 W 1010,7 0,0
22.06.2019 17:00:00 34,6 12,8 6 3 19 10 WSW 1011,3 0,0
22.06.2019 16:00:00 33,8 12,7 8 4 21 11 NW 1011,7 0,0
22.06.2019 15:00:00 33,2 12,7 12 7 24 13 W 1012,6 0,0
22.06.2019 14:00:00 32,4 14,0 4 2 21 11 W 1013,2 -
22.06.2019 13:00:00 31,2 13,9 8 4 18 10 SE 1013,9 0,0
22.06.2019 12:00:00 28,9 14,3 3 2 15 8 ESE 1014,5 0,0
22.06.2019 11:00:00 26,0 13,2 7 4 17 9 ENE 1015,0 0,0
22.06.2019 10:00:00 22,1 12,1 7 4 14 8 ESE 1015,7 0,0
22.06.2019 09:00:00 19,6 11,1 4 2 - - E 1015,8 -
22.06.2019 08:00:00 16,2 9,6 2 1 6 3 SSE 1015,7 -
22.06.2019 07:00:00 14,5 7,6 0 0 6 4 SE 1015,3 0,0
22.06.2019 06:00:00 15,8 8,3 1 1 11 6 S 1014,9 0,0
22.06.2019 05:00:00 17,0 9,2 2 1 4 2 WNW 1014,8 0,0
22.06.2019 04:00:00 17,6 9,2 0 0 6 4 SSW 1014,9 0,0
22.06.2019 03:00:00 19,0 9,2 0 0 6 4 N 1014,9 0,0
22.06.2019 02:00:00 20,9 9,4 5 3 16 9 SW 1014,7 -
22.06.2019 01:00:00 21,8 10,3 14 7 34 19 WSW 1014,8 0,0
22.06.2019 00:00:00 23,0 10,0 15 8 31 17 WSW 1014,4 0,0
21.06.2019 23:00:00 24,5 10,4 23 12 34 18 WSW 1013,8 0,0
21.06.2019 22:00:00 26,5 11,0 15 8 31 17 WSW 1013,1 0,0
21.06.2019 21:00:00 30,6 7,7 10 5 17 9 WSW 1012,6 0,0
21.06.2019 20:00:00 31,5 8,5 11 6 22 12 WSW 1012,4 -
21.06.2019 19:00:00 31,6 8,5 8 4 24 13 W 1012,4 0,0
21.06.2019 18:00:00 31,8 10,5 5 3 27 14 WNW 1012,7 0,0
21.06.2019 17:00:00 31,3 11,1 14 7 29 15 WNW 1013,0 0,0
21.06.2019 16:00:00 30,4 11,3 8 4 25 13 W 1013,4 0,0
21.06.2019 15:00:00 29,3 12,2 7 4 36 19 WSW 1014,1 0,0
21.06.2019 14:00:00 28,4 12,7 9 5 23 12 W 1014,7 -
21.06.2019 13:00:00 26,9 13,3 7 4 26 14 SW 1015,6 0,0
21.06.2019 12:00:00 25,0 13,0 6 3 23 12 W 1016,0 0,0
21.06.2019 11:00:00 23,2 12,8 5 3 12 6 NNW 1016,4 0,0
21.06.2019 10:00:00 22,1 13,0 1 1 9 5 NW 1016,6 0,0
21.06.2019 09:00:00 19,1 12,3 3 1 7 4 ESE 1016,5 0,0
21.06.2019 08:00:00 16,1 10,6 3 2 9 5 E 1016,7 -
21.06.2019 07:00:00 15,7 10,0 3 1 10 5 W 1016,2 0,0
21.06.2019 06:00:00 16,6 10,2 0 0 12 7 N 1015,9 0,0
21.06.2019 05:00:00 17,4 10,8 6 3 17 9 W 1015,7 0,0
21.06.2019 04:00:00 17,4 10,3 1 1 8 4 SE 1015,5 0,0
21.06.2019 03:00:00 18,5 10,9 6 3 21 11 WSW 1015,3 0,0
21.06.2019 02:00:00 18,9 10,4 9 5 18 10 SW 1015,2 -
21.06.2019 01:00:00 19,5 10,2 9 5 24 13 WSW 1015,3 0,0
21.06.2019 00:00:00 20,3 10,4 21 11 32 17 WSW 1014,9 0,0
20.06.2019 23:00:00 21,1 10,5 24 13 36 19 WSW 1014,3 0,0
20.06.2019 22:00:00 22,6 11,0 20 11 37 20 WSW 1013,5 0,0
20.06.2019 21:00:00 25,4 12,2 18 10 37 20 WSW 1013,2 0,0
20.06.2019 20:00:00 27,7 12,8 18 10 32 18 W 1012,7 -
20.06.2019 19:00:00 28,3 12,6 14 8 32 17 WSW 1012,7 0,0
20.06.2019 18:00:00 28,3 12,6 17 9 37 20 WSW 1013,2 0,0
20.06.2019 17:00:00 28,7 12,5 19 11 36 19 WSW 1013,5 0,0

tt = temperature
td = dewpoint
ff = wind speed
fx = gusts
dd = wind direction
ppp = reduced air pressure
rr = precipitation

Next stations